Terminal Aerodrome Forecast
Issued by NWS Northern Indiana

Home | Current Version | Previous Version | Text Only | Print | Product List | Glossary Off
Versions: 1 2 3 4 5 6 7 8 9 10 11 12 13 14 15 16

000
FTUS43 KIWX 080500
TAFFWA
TAF
KFWA 080520Z 0806/0906 20008KT P6SM SCT010 BKN040
      TEMPO 0806/0808 5SM BR BKN010
     FM080800 22008KT P6SM SCT030
     FM081200 23011KT 4SM SHRA VCTS SCT020CB OVC030
     FM081800 27013KT P6SM BKN035
     FM090000 27005KT P6SM BKN040=

USA.gov is the U.S. government's official web portal to all federal, state and local government web resources and services.